Islamorada, FL

4:40 PM EDT on August 27, 2014 (GMT -0400)
Miami International | Change Station
CLOSE
Current Station
Airport
Location: Miami,
Elevation: 13 ft
Nearby Weather Stations

Elev 13 ft 25.79 °N, 80.32 °W | Updated 47 minutes ago

Partly Cloudy
Partly Cloudy
90 °F
Feels Like 95 °F
N
15
Wind Variable Wind from ESE

Today
High -- | Low -- °F
--% Chance of Precip.
Yesterday
High -- | Low -- °F
Precip. -- in
7:01 AM 7:46 PM
Waxing Crescent, 5% visible
Pressure 29.93 in
Visibility 10.0 miles
Clouds Few 4400 ft
Few 30000 ft
Heat Index 95 °F
Dew Point 70 °F
Humidity 52%
Rainfall 0.00 in
Snow Depth Not available.
UV 9 out of 12
Pollen 4.80 out of 12
Air Quality Not available.
Flu Activity Not available.
METAR KMIA 271953Z 11013KT 10SM FEW044 FEW300 32/21 A2992 RMK AO2 SLP133 T03220211 $

More Conditions Fewer Conditions

Pressure 29.93 in
Visibility 10.0 miles
Clouds Few 4400 ft
Few 30000 ft
Heat Index 95 °F
Dew Point 70 °F
Humidity 52%
Rainfall 0.00 in
Snow Depth Not available.
UV 9 out of 12
Pollen 4.80 out of 12
Air Quality Not available.
Flu Activity Not available.
METAR KMIA 271953Z 11013KT 10SM FEW044 FEW300 32/21 A2992 RMK AO2 SLP133 T03220211 $

More Conditions Fewer Conditions

10-Day Weather Forecast

Almanac

Astronomy

Aug. 27, 2014 Rise Set
Actual Time 7:01 AM EDT 7:46 PM EDT
Civil Twilight 6:38 AM EDT 8:09 PM EDT
Nautical Twilight 6:10 AM EDT 8:36 PM EDT
Astronomical Twilight 5:42 AM EDT 9:04 PM EDT
Moon 8:39 AM EDT 8:56 PM EDT
Length of Visible Light 13h 31m
Length of Day
12h 44m
Tomorrow will be 1m 22s shorter.
Waxing Crescent, 5% of the Moon is Illuminated
Today
Waxing Crescent
Sep 2
First Quarter
Sep 8
Full
Sep 15
Last Quarter
Sep 24
New

Today's Extremes

State Highs State Lows

Community

WunderPhotos

Upload Photos

1,747,781 photos uploaded!

Nearby

Snow Depth

Station Depth Elevation
No new snow has been reported.

Earthquake Activity

City Distance Mag. Time & Date
No recent earthquake activity has been reported nearby.
Minimum magnitude displayed is 2.5.

Coastal Water Temperatures

Place Temperature
No Stations Reporting

Nearby Weather Stations